createdAt,value
2023-04-02T00:00:30.892Z,7.85
2023-04-02T00:01:30.832Z,7.80
2023-04-02T00:02:31.064Z,7.71
2023-04-02T00:03:30.904Z,7.63
2023-04-02T00:04:30.814Z,7.61
2023-04-02T00:05:30.840Z,7.55
2023-04-02T00:06:30.775Z,7.50
2023-04-02T00:07:30.878Z,7.49
2023-04-02T00:08:30.760Z,7.45
2023-04-02T00:09:30.739Z,7.40
2023-04-02T00:10:30.733Z,7.40
2023-04-02T00:11:30.753Z,7.35
2023-04-02T00:12:30.705Z,7.35
2023-04-02T00:13:30.691Z,7.35
2023-04-02T00:14:30.672Z,7.37
2023-04-02T00:15:30.666Z,7.37
2023-04-02T00:16:30.752Z,7.32
2023-04-02T00:17:30.635Z,7.24
2023-04-02T00:18:30.662Z,7.16
2023-04-02T00:19:30.627Z,7.10
2023-04-02T00:20:30.631Z,7.12
2023-04-02T00:21:30.659Z,7.12
2023-04-02T00:22:30.631Z,7.09
2023-04-02T00:23:30.569Z,7.09
2023-04-02T00:24:30.565Z,7.06
2023-04-02T00:25:30.585Z,7.06
2023-04-02T00:26:30.547Z,7.07
2023-04-02T00:27:30.562Z,7.05
2023-04-02T00:28:30.520Z,7.03
2023-04-02T00:29:30.516Z,7.05
2023-04-02T00:30:30.505Z,7.05
2023-04-02T00:31:30.490Z,7.03
2023-04-02T00:32:30.550Z,6.97
2023-04-02T00:33:30.466Z,6.91
2023-04-02T00:34:30.477Z,6.89
2023-04-02T00:35:30.442Z,6.87
2023-04-02T00:36:30.440Z,6.84
2023-04-02T00:37:30.429Z,6.84
2023-04-02T00:38:30.428Z,6.85
2023-04-02T00:39:30.418Z,6.85
2023-04-02T00:40:30.380Z,6.81
2023-04-02T00:41:30.364Z,6.81
2023-04-02T00:42:30.354Z,6.77
2023-04-02T00:43:30.341Z,6.77
2023-04-02T00:44:30.377Z,6.74
2023-04-02T00:45:30.314Z,6.69
2023-04-02T00:46:30.362Z,6.64
2023-04-02T00:47:30.327Z,6.62
2023-04-02T00:48:30.289Z,6.61
2023-04-02T00:49:30.273Z,6.62
2023-04-02T00:50:30.294Z,6.61
2023-04-02T00:51:30.244Z,6.64
2023-04-02T00:52:30.246Z,6.61
2023-04-02T00:53:30.300Z,6.59
2023-04-02T00:54:30.232Z,6.56
2023-04-02T00:55:30.204Z,6.56
2023-04-02T00:56:30.216Z,6.58
2023-04-02T00:57:30.227Z,6.58
2023-04-02T00:58:30.176Z,6.56
2023-04-02T00:59:30.182Z,6.51
2023-04-02T01:00:30.185Z,6.44
2023-04-02T01:01:30.170Z,6.46
2023-04-02T01:02:30.241Z,6.40
2023-04-02T01:03:30.375Z,6.37
2023-04-02T01:04:30.110Z,6.37
2023-04-02T01:05:30.072Z,6.38
2023-04-02T01:06:30.073Z,6.40
2023-04-02T01:07:30.087Z,6.41
2023-04-02T01:08:30.056Z,6.37
2023-04-02T01:09:30.041Z,6.34
2023-04-02T01:10:30.069Z,6.37
2023-04-02T01:11:30.000Z,6.37
2023-04-02T01:12:30.038Z,6.36
2023-04-02T01:13:29.998Z,6.36
2023-04-02T01:14:29.987Z,6.34
2023-04-02T01:15:29.995Z,6.37
2023-04-02T01:16:30.030Z,6.33
2023-04-02T01:17:29.960Z,6.31
2023-04-02T01:18:29.932Z,6.27
2023-04-02T01:19:29.912Z,6.27
2023-04-02T01:20:29.915Z,6.19
2023-04-02T01:21:29.922Z,6.18
2023-04-02T01:22:29.898Z,6.15
2023-04-02T01:23:29.883Z,6.18
2023-04-02T01:24:29.860Z,6.21
2023-04-02T01:25:29.848Z,6.25
2023-04-02T01:26:29.889Z,6.25
2023-04-02T01:27:29.838Z,6.27
2023-04-02T01:28:29.801Z,6.30
2023-04-02T01:29:29.809Z,6.28
2023-04-02T01:30:29.783Z,6.25
2023-04-02T01:31:29.819Z,6.25
2023-04-02T01:32:29.837Z,6.25
2023-04-02T01:33:29.752Z,6.25
2023-04-02T01:34:29.744Z,6.27
2023-04-02T01:35:29.723Z,6.22
2023-04-02T01:36:29.704Z,6.22
2023-04-02T01:37:29.768Z,6.22
2023-04-02T01:38:29.702Z,6.25
2023-04-02T01:39:29.701Z,6.22
2023-04-02T01:40:29.652Z,6.17
2023-04-02T01:41:29.648Z,6.15
2023-04-02T01:42:29.697Z,6.14
2023-04-02T01:43:29.673Z,6.12
2023-04-02T01:44:29.630Z,6.12
2023-04-02T01:45:29.618Z,6.14
2023-04-02T01:46:29.674Z,6.14
2023-04-02T01:47:29.663Z,6.11
2023-04-02T01:48:29.601Z,6.11
2023-04-02T01:49:29.551Z,6.09
2023-04-02T01:50:29.560Z,6.06
2023-04-02T01:51:29.544Z,6.04
2023-04-02T01:52:29.531Z,6.03
2023-04-02T01:53:29.574Z,6.01
2023-04-02T01:54:29.502Z,6.01
2023-04-02T01:55:29.531Z,6.01
2023-04-02T01:56:29.472Z,6.01
2023-04-02T01:57:29.568Z,6.00
2023-04-02T01:58:29.450Z,5.99
2023-04-02T01:59:29.447Z,6.00
2023-04-02T02:00:29.493Z,5.99
2023-04-02T02:01:29.431Z,5.94
2023-04-02T02:02:29.482Z,5.93
2023-04-02T02:03:29.434Z,5.90
2023-04-02T02:04:29.394Z,5.91
2023-04-02T02:05:29.368Z,5.90
2023-04-02T02:06:29.384Z,5.89
2023-04-02T02:07:29.340Z,5.89
2023-04-02T02:08:29.372Z,5.82
2023-04-02T02:09:29.327Z,5.82
2023-04-02T02:10:29.317Z,5.85
2023-04-02T02:11:29.338Z,5.90
2023-04-02T02:12:29.295Z,5.90
2023-04-02T02:13:29.298Z,5.89
2023-04-02T02:14:29.306Z,5.89
2023-04-02T02:15:29.269Z,5.89
2023-04-02T02:16:29.296Z,5.82
2023-04-02T02:17:29.285Z,5.83
2023-04-02T02:18:29.243Z,5.82
2023-04-02T02:19:29.261Z,5.79
2023-04-02T02:20:29.209Z,5.72
2023-04-02T02:21:29.259Z,5.71
2023-04-02T02:22:29.171Z,5.72
2023-04-02T02:23:29.172Z,5.67
2023-04-02T02:24:29.163Z,5.67
2023-04-02T02:25:29.176Z,5.67
2023-04-02T02:26:29.178Z,5.67
2023-04-02T02:27:29.127Z,5.61
2023-04-02T02:28:29.100Z,5.60
2023-04-02T02:29:29.130Z,5.58
2023-04-02T02:30:29.095Z,5.58
2023-04-02T02:31:29.132Z,5.57
2023-04-02T02:32:29.113Z,5.58
2023-04-02T02:33:29.043Z,5.57
2023-04-02T02:34:29.084Z,5.51
2023-04-02T02:35:29.040Z,5.49
2023-04-02T02:36:29.071Z,5.51
2023-04-02T02:37:29.017Z,5.43
2023-04-02T02:38:28.988Z,5.36
2023-04-02T02:39:28.989Z,5.36
2023-04-02T02:40:29.028Z,5.38
2023-04-02T02:41:28.989Z,5.36
2023-04-02T02:42:28.969Z,5.38
2023-04-02T02:43:28.939Z,5.35
2023-04-02T02:44:28.945Z,5.38
2023-04-02T02:45:28.921Z,5.36
2023-04-02T02:46:29.013Z,5.35
2023-04-02T02:47:28.918Z,5.30
2023-04-02T02:48:28.878Z,5.28
2023-04-02T02:49:28.860Z,5.24
2023-04-02T02:50:28.864Z,5.17
2023-04-02T02:51:28.843Z,5.13
2023-04-02T02:52:28.859Z,5.09
2023-04-02T02:53:28.809Z,5.09
2023-04-02T02:54:28.818Z,5.06
2023-04-02T02:55:28.797Z,5.02
2023-04-02T02:56:28.772Z,5.06
2023-04-02T02:57:29.024Z,5.04
2023-04-02T02:58:28.787Z,5.03
2023-04-02T02:59:28.729Z,5.07
2023-04-02T03:00:28.730Z,5.09
2023-04-02T03:01:28.788Z,5.09
2023-04-02T03:02:28.798Z,5.09
2023-04-02T03:03:28.825Z,5.03
2023-04-02T03:04:28.748Z,4.94
2023-04-02T03:05:28.734Z,4.96
2023-04-02T03:06:28.657Z,4.97
2023-04-02T03:07:28.659Z,4.99
2023-04-02T03:08:28.651Z,5.02
2023-04-02T03:09:28.612Z,5.06
2023-04-02T03:10:28.642Z,5.03
2023-04-02T03:11:28.601Z,4.99
2023-04-02T03:12:28.598Z,4.94
2023-04-02T03:13:28.581Z,4.91
2023-04-02T03:14:28.586Z,4.92
2023-04-02T03:15:28.636Z,4.97
2023-04-02T03:16:28.524Z,5.00
2023-04-02T03:17:28.579Z,4.99
2023-04-02T03:18:28.523Z,5.00
2023-04-02T03:19:28.494Z,5.02
2023-04-02T03:20:28.501Z,5.06
2023-04-02T03:21:28.507Z,5.04
2023-04-02T03:22:28.559Z,5.03
2023-04-02T03:23:28.448Z,4.97
2023-04-02T03:24:28.457Z,4.94
2023-04-02T03:25:28.436Z,4.94
2023-04-02T03:26:28.427Z,4.96
2023-04-02T03:27:28.457Z,4.97
2023-04-02T03:28:28.449Z,4.97
2023-04-02T03:29:28.397Z,4.92
2023-04-02T03:30:28.403Z,4.94
2023-04-02T03:31:28.397Z,4.92
2023-04-02T03:32:28.370Z,4.96
2023-04-02T03:33:28.328Z,4.97
2023-04-02T03:34:28.326Z,5.00
2023-04-02T03:35:28.353Z,4.99
2023-04-02T03:36:28.292Z,5.00
2023-04-02T03:37:28.301Z,5.00
2023-04-02T03:38:28.290Z,4.96
2023-04-02T03:39:28.276Z,4.99
2023-04-02T03:40:28.297Z,4.94
2023-04-02T03:41:28.264Z,4.97
2023-04-02T03:42:28.241Z,5.02
2023-04-02T03:43:28.219Z,4.94
2023-04-02T03:44:28.197Z,4.89
2023-04-02T03:45:28.204Z,4.88
2023-04-02T03:46:28.246Z,4.89
2023-04-02T03:47:28.269Z,4.85
2023-04-02T03:48:28.154Z,4.80
2023-04-02T03:49:28.133Z,4.80
2023-04-02T03:50:28.142Z,4.78
2023-04-02T03:51:28.142Z,4.78
2023-04-02T03:52:28.136Z,4.77
2023-04-02T03:53:28.146Z,4.77
2023-04-02T03:54:28.147Z,4.77
2023-04-02T03:55:28.101Z,4.77
2023-04-02T03:56:28.086Z,4.77
2023-04-02T03:57:28.118Z,4.80
2023-04-02T03:58:28.044Z,4.82
2023-04-02T03:59:28.088Z,4.80
2023-04-02T04:00:28.026Z,4.75
2023-04-02T04:01:27.998Z,4.72
2023-04-02T04:02:28.065Z,4.73
2023-04-02T04:03:28.007Z,4.73
2023-04-02T04:04:28.006Z,4.75
2023-04-02T04:05:27.959Z,4.75
2023-04-02T04:06:27.943Z,4.77
2023-04-02T04:07:27.949Z,4.75
2023-04-02T04:08:27.901Z,4.77
2023-04-02T04:09:27.931Z,4.77
2023-04-02T04:10:27.882Z,4.80
2023-04-02T04:11:27.974Z,4.86
2023-04-02T04:12:27.903Z,4.86
2023-04-02T04:13:27.877Z,4.88
2023-04-02T04:14:27.876Z,4.84
2023-04-02T04:15:27.893Z,4.85
2023-04-02T04:16:27.855Z,4.84
2023-04-02T04:17:27.842Z,4.80
2023-04-02T04:18:27.814Z,4.82
2023-04-02T04:19:27.834Z,4.78
2023-04-02T04:20:27.776Z,4.75
2023-04-02T04:21:27.788Z,4.78
2023-04-02T04:22:27.766Z,4.77
2023-04-02T04:23:27.747Z,4.80
2023-04-02T04:24:27.717Z,4.75
2023-04-02T04:25:27.763Z,4.78
2023-04-02T04:26:27.716Z,4.77
2023-04-02T04:27:27.688Z,4.77
2023-04-02T04:28:27.694Z,4.80
2023-04-02T04:29:27.668Z,4.82
2023-04-02T04:30:27.650Z,4.80
2023-04-02T04:31:27.728Z,4.82
2023-04-02T04:32:27.908Z,4.82
2023-04-02T04:33:27.620Z,4.84
2023-04-02T04:34:27.626Z,4.75
2023-04-02T04:35:27.660Z,4.63
2023-04-02T04:36:27.616Z,4.55
2023-04-02T04:37:27.579Z,4.55
2023-04-02T04:38:27.610Z,4.54
2023-04-02T04:39:27.574Z,4.55
2023-04-02T04:40:27.563Z,4.50
2023-04-02T04:41:27.536Z,4.44
2023-04-02T04:42:27.541Z,4.45
2023-04-02T04:43:27.526Z,4.45
2023-04-02T04:44:27.523Z,4.47
2023-04-02T04:45:27.467Z,4.37
2023-04-02T04:46:27.551Z,4.33
2023-04-02T04:47:27.509Z,4.32
2023-04-02T04:48:27.464Z,4.33
2023-04-02T04:49:27.439Z,4.32
2023-04-02T04:50:27.465Z,4.34
2023-04-02T04:51:27.431Z,4.34
2023-04-02T04:52:27.387Z,4.36
2023-04-02T04:53:27.386Z,4.40
2023-04-02T04:54:27.375Z,4.40
2023-04-02T04:55:27.376Z,4.34
2023-04-02T04:56:27.337Z,4.37
2023-04-02T04:57:27.442Z,4.30
2023-04-02T04:58:27.321Z,4.29
2023-04-02T04:59:27.381Z,4.27
2023-04-02T05:00:27.345Z,4.33
2023-04-02T05:01:27.396Z,4.37
2023-04-02T05:02:27.324Z,4.37
2023-04-02T05:03:27.318Z,4.32
2023-04-02T05:04:27.288Z,4.26
2023-04-02T05:05:27.291Z,4.29
2023-04-02T05:06:27.351Z,4.30
2023-04-02T05:07:27.240Z,4.30
2023-04-02T05:08:27.230Z,4.29
2023-04-02T05:09:27.215Z,4.32
2023-04-02T05:10:27.190Z,4.29
2023-04-02T05:11:27.179Z,4.24
2023-04-02T05:12:27.168Z,4.26
2023-04-02T05:13:27.176Z,4.30
2023-04-02T05:14:27.123Z,4.34
2023-04-02T05:15:27.129Z,4.32
2023-04-02T05:16:27.214Z,4.24
2023-04-02T05:17:27.169Z,4.22
2023-04-02T05:18:27.106Z,4.23
2023-04-02T05:19:27.117Z,4.23
2023-04-02T05:20:27.077Z,4.23
2023-04-02T05:21:27.069Z,4.23
2023-04-02T05:22:27.073Z,4.26
2023-04-02T05:23:27.061Z,4.26
2023-04-02T05:24:27.061Z,4.24
2023-04-02T05:25:27.022Z,4.20
2023-04-02T05:26:26.973Z,4.18
2023-04-02T05:27:27.007Z,4.22
2023-04-02T05:28:26.973Z,4.20
2023-04-02T05:29:26.947Z,4.18
2023-04-02T05:30:26.969Z,4.15
2023-04-02T05:31:27.001Z,4.12
2023-04-02T05:32:26.943Z,4.14
2023-04-02T05:33:26.985Z,4.14
2023-04-02T05:34:26.917Z,4.16
2023-04-02T05:35:26.882Z,4.20
2023-04-02T05:36:26.939Z,4.23
2023-04-02T05:37:26.868Z,4.24
2023-04-02T05:38:26.840Z,4.27
2023-04-02T05:39:26.913Z,4.27
2023-04-02T05:40:26.828Z,4.20
2023-04-02T05:41:26.877Z,4.15
2023-04-02T05:42:26.808Z,4.11
2023-04-02T05:43:26.796Z,4.11
2023-04-02T05:44:26.776Z,4.12
2023-04-02T05:45:26.798Z,4.09
2023-04-02T05:46:26.835Z,4.05
2023-04-02T05:47:26.765Z,4.00
2023-04-02T05:48:26.731Z,3.98
2023-04-02T05:49:26.768Z,3.98
2023-04-02T05:50:26.729Z,4.04
2023-04-02T05:51:26.698Z,4.05
2023-04-02T05:52:26.689Z,4.05
2023-04-02T05:53:26.675Z,4.08
2023-04-02T05:54:26.661Z,4.05
2023-04-02T05:55:26.672Z,4.04
2023-04-02T05:56:26.635Z,4.04
2023-04-02T05:57:39.513Z,4.02
2023-04-02T05:59:26.625Z,3.97
2023-04-02T06:00:26.602Z,3.97
2023-04-02T06:01:26.553Z,4.00
2023-04-02T06:02:26.655Z,3.98
2023-04-02T06:03:26.639Z,3.98
2023-04-02T06:04:26.546Z,4.05
2023-04-02T06:05:26.565Z,4.06
2023-04-02T06:06:26.546Z,4.02
2023-04-02T06:07:26.504Z,3.98
2023-04-02T06:08:26.499Z,3.98
2023-04-02T06:09:26.481Z,4.00
2023-04-02T06:10:26.494Z,4.06
2023-04-02T06:11:26.455Z,4.09
2023-04-02T06:12:26.518Z,4.12
2023-04-02T06:13:26.426Z,4.15
2023-04-02T06:14:26.453Z,4.16
2023-04-02T06:15:26.397Z,4.22
2023-04-02T06:16:26.431Z,4.23
2023-04-02T06:17:26.432Z,4.23
2023-04-02T06:18:26.383Z,4.14
2023-04-02T06:19:26.361Z,4.12
2023-04-02T06:20:26.371Z,4.14
2023-04-02T06:21:26.338Z,4.14
2023-04-02T06:22:26.325Z,4.15
2023-04-02T06:23:26.296Z,4.16
2023-04-02T06:24:26.336Z,4.16
2023-04-02T06:25:26.304Z,4.15
2023-04-02T06:26:26.278Z,4.14
2023-04-02T06:27:26.261Z,4.16
2023-04-02T06:28:26.268Z,4.23
2023-04-02T06:29:26.247Z,4.26
2023-04-02T06:30:26.283Z,4.30
2023-04-02T06:31:26.302Z,4.32
2023-04-02T06:32:26.249Z,4.27
2023-04-02T06:33:26.178Z,4.23
2023-04-02T06:34:26.182Z,4.24
2023-04-02T06:35:26.183Z,4.27
2023-04-02T06:36:26.185Z,4.29
2023-04-02T06:37:26.131Z,4.33
2023-04-02T06:38:26.125Z,4.27
2023-04-02T06:39:26.165Z,4.26
2023-04-02T06:40:26.150Z,4.23
2023-04-02T06:41:26.098Z,4.23
2023-04-02T06:42:26.083Z,4.16
2023-04-02T06:43:26.097Z,4.12
2023-04-02T06:44:26.086Z,4.12
2023-04-02T06:45:26.030Z,4.08
2023-04-02T06:46:26.159Z,4.06
2023-04-02T06:47:26.062Z,4.08
2023-04-02T06:48:26.014Z,4.12
2023-04-02T06:49:26.011Z,4.12
2023-04-02T06:50:25.994Z,4.11
2023-04-02T06:51:25.998Z,4.02
2023-04-02T06:52:25.983Z,4.00
2023-04-02T06:53:25.970Z,4.02
2023-04-02T06:54:25.964Z,4.06
2023-04-02T06:55:25.976Z,4.11
2023-04-02T06:56:25.962Z,4.08
2023-04-02T06:57:25.922Z,4.08
2023-04-02T06:58:25.905Z,4.04
2023-04-02T06:59:25.884Z,4.05
2023-04-02T07:00:25.888Z,4.11
2023-04-02T07:01:25.897Z,4.12
2023-04-02T07:02:25.885Z,4.08
2023-04-02T07:03:25.819Z,4.08
2023-04-02T07:04:25.822Z,4.02
2023-04-02T07:05:25.818Z,3.93
2023-04-02T07:06:25.794Z,3.93
2023-04-02T07:07:25.838Z,4.00
2023-04-02T07:08:25.771Z,4.08
2023-04-02T07:09:25.777Z,4.08
2023-04-02T07:10:25.785Z,4.08
2023-04-02T07:11:25.729Z,4.11
2023-04-02T07:12:25.772Z,4.15
2023-04-02T07:13:25.705Z,4.12
2023-04-02T07:14:25.698Z,4.04
2023-04-02T07:15:25.681Z,4.04
2023-04-02T07:16:25.787Z,4.08
2023-04-02T07:17:25.671Z,4.11
2023-04-02T07:18:25.664Z,4.15
2023-04-02T07:19:25.630Z,4.15
2023-04-02T07:20:25.614Z,4.16
2023-04-02T07:21:25.658Z,4.16
2023-04-02T07:22:25.604Z,4.15
2023-04-02T07:23:25.617Z,4.16
2023-04-02T07:24:25.590Z,4.16
2023-04-02T07:25:25.562Z,4.12
2023-04-02T07:26:25.554Z,4.05
2023-04-02T07:27:25.542Z,3.97
2023-04-02T07:28:25.657Z,3.93
2023-04-02T07:29:25.548Z,3.93
2023-04-02T07:30:25.499Z,3.93
2023-04-02T07:31:25.541Z,3.88
2023-04-02T07:32:25.484Z,3.84
2023-04-02T07:33:25.453Z,3.86
2023-04-02T07:34:25.498Z,3.88
2023-04-02T07:35:25.424Z,3.86
2023-04-02T07:36:25.416Z,3.86
2023-04-02T07:37:25.417Z,3.83
2023-04-02T07:38:25.439Z,3.79
2023-04-02T07:39:25.414Z,3.79
2023-04-02T07:40:25.377Z,3.79
2023-04-02T07:41:25.374Z,3.84
2023-04-02T07:42:25.365Z,3.79
2023-04-02T07:43:25.349Z,3.83
2023-04-02T07:44:25.347Z,3.86
2023-04-02T07:45:25.336Z,3.80
2023-04-02T07:46:25.301Z,3.80
2023-04-02T07:47:25.317Z,3.80
2023-04-02T07:48:25.303Z,3.75
2023-04-02T07:49:25.281Z,3.76
2023-04-02T07:50:25.307Z,3.78
2023-04-02T07:51:25.269Z,3.79
2023-04-02T07:52:25.241Z,3.76
2023-04-02T07:53:25.228Z,3.72
2023-04-02T07:54:25.240Z,3.72
2023-04-02T07:55:25.229Z,3.69
2023-04-02T07:56:25.243Z,3.72
2023-04-02T07:57:25.272Z,3.72
2023-04-02T07:58:25.168Z,3.70
2023-04-02T07:59:25.144Z,3.76
2023-04-02T08:00:25.143Z,3.84
2023-04-02T08:01:25.130Z,3.80
2023-04-02T08:02:25.162Z,3.86
2023-04-02T08:03:25.186Z,3.86
2023-04-02T08:04:25.186Z,3.84
2023-04-02T08:05:25.136Z,3.84
2023-04-02T08:06:25.067Z,3.84
2023-04-02T08:07:25.050Z,3.78
2023-04-02T08:08:25.026Z,3.79
2023-04-02T08:09:25.172Z,3.86
2023-04-02T08:10:25.020Z,3.88
2023-04-02T08:11:25.044Z,3.86
2023-04-02T08:12:25.017Z,3.91
2023-04-02T08:13:24.990Z,3.93
2023-04-02T08:14:24.988Z,3.79
2023-04-02T08:15:25.055Z,3.76
2023-04-02T08:16:24.992Z,3.70
2023-04-02T08:17:25.014Z,3.72
2023-04-02T08:18:24.950Z,3.72
2023-04-02T08:19:24.898Z,3.75
2023-04-02T08:20:24.909Z,3.80
2023-04-02T08:21:24.951Z,3.84
2023-04-02T08:22:24.903Z,3.80
2023-04-02T08:23:24.888Z,3.87
2023-04-02T08:24:24.878Z,3.90
2023-04-02T08:25:24.852Z,3.94
2023-04-02T08:26:24.848Z,3.94
2023-04-02T08:27:24.834Z,3.90
2023-04-02T08:28:24.809Z,3.88
2023-04-02T08:29:24.814Z,3.83
2023-04-02T08:30:24.770Z,3.79
2023-04-02T08:31:24.821Z,3.75
2023-04-02T08:32:24.768Z,3.72
2023-04-02T08:33:24.763Z,3.76
2023-04-02T08:34:24.754Z,3.78
2023-04-02T08:35:24.717Z,3.83
2023-04-02T08:36:24.761Z,3.84
2023-04-02T08:37:24.697Z,3.84
2023-04-02T08:38:24.688Z,3.79
2023-04-02T08:39:24.710Z,3.83
2023-04-02T08:40:24.665Z,3.84
2023-04-02T08:41:24.661Z,3.87
2023-04-02T08:42:24.699Z,3.84
2023-04-02T08:43:24.645Z,3.76
2023-04-02T08:44:24.637Z,3.75
2023-04-02T08:45:25.584Z,3.70
2023-04-02T08:46:24.670Z,3.70
2023-04-02T08:47:24.593Z,3.72
2023-04-02T08:48:24.570Z,3.75
2023-04-02T08:49:24.545Z,3.73
2023-04-02T08:50:24.589Z,3.73
2023-04-02T08:51:24.538Z,3.75
2023-04-02T08:52:24.527Z,3.70
2023-04-02T08:53:24.550Z,3.68
2023-04-02T08:54:24.511Z,3.70
2023-04-02T08:55:24.528Z,3.69
2023-04-02T08:56:24.472Z,3.68
2023-04-02T08:57:24.496Z,3.65
2023-04-02T08:58:24.448Z,3.62
2023-04-02T08:59:24.422Z,3.62
2023-04-02T09:00:24.473Z,3.68
2023-04-02T09:01:24.459Z,3.69
2023-04-02T09:02:24.485Z,3.65
2023-04-02T09:03:24.408Z,3.61
2023-04-02T09:04:24.391Z,3.61
2023-04-02T09:05:24.384Z,3.72
2023-04-02T09:06:24.339Z,3.68
2023-04-02T09:07:24.339Z,3.61
2023-04-02T09:08:24.359Z,3.68
2023-04-02T09:09:24.303Z,3.65
2023-04-02T09:10:24.313Z,3.68
2023-04-02T09:11:24.319Z,3.73
2023-04-02T09:12:24.292Z,3.79
2023-04-02T09:13:24.301Z,3.79
2023-04-02T09:14:24.267Z,3.84
2023-04-02T09:15:24.244Z,3.91
2023-04-02T09:16:24.279Z,3.96
2023-04-02T09:17:24.231Z,3.93
2023-04-02T09:18:24.295Z,3.98
2023-04-02T09:19:24.187Z,4.02
2023-04-02T09:20:24.200Z,3.97
2023-04-02T09:21:24.163Z,3.97
2023-04-02T09:22:24.162Z,4.05
2023-04-02T09:23:24.202Z,4.14
2023-04-02T09:24:24.154Z,4.23
2023-04-02T09:25:24.162Z,4.32
2023-04-02T09:26:24.173Z,4.32
2023-04-02T09:27:24.099Z,4.26
2023-04-02T09:28:24.091Z,4.23
2023-04-02T09:29:24.083Z,4.15
2023-04-02T09:30:24.070Z,4.22
2023-04-02T09:31:24.133Z,4.20
2023-04-02T09:32:24.100Z,4.20
2023-04-02T09:33:24.041Z,4.18
2023-04-02T09:34:24.018Z,4.26
2023-04-02T09:35:36.383Z,4.24
2023-04-02T09:36:25.072Z,4.30
2023-04-02T09:37:23.971Z,4.34
2023-04-02T09:38:23.964Z,4.37
2023-04-02T09:39:23.987Z,4.42
2023-04-02T09:40:23.970Z,4.40
2023-04-02T09:41:23.939Z,4.40
2023-04-02T09:42:23.945Z,4.36
2023-04-02T09:43:23.955Z,4.30
2023-04-02T09:44:23.926Z,4.26
2023-04-02T09:45:23.932Z,4.29
2023-04-02T09:46:23.950Z,4.26
2023-04-02T09:47:23.904Z,4.23
2023-04-02T09:48:23.876Z,4.26
2023-04-02T09:49:23.845Z,4.29
2023-04-02T09:50:23.900Z,4.20
2023-04-02T09:51:23.862Z,4.11
2023-04-02T09:52:23.820Z,4.16
2023-04-02T09:53:23.795Z,4.24
2023-04-02T09:54:23.786Z,4.24
2023-04-02T09:55:23.782Z,4.29
2023-04-02T09:56:23.824Z,4.32
2023-04-02T09:57:24.037Z,4.34
2023-04-02T09:58:23.716Z,4.34
2023-04-02T09:59:23.729Z,4.41
2023-04-02T10:01:23.776Z,4.59
2023-04-02T10:02:23.733Z,4.63
2023-04-02T10:03:23.711Z,4.60
2023-04-02T10:04:26.254Z,4.63
2023-04-02T10:05:38.903Z,4.69
2023-04-02T10:06:24.653Z,4.73
2023-04-02T10:07:23.638Z,4.77
2023-04-02T10:08:23.599Z,4.70
2023-04-02T10:09:23.664Z,4.77
2023-04-02T10:10:25.249Z,4.77
2023-04-02T10:11:26.806Z,4.80
2023-04-02T10:12:24.561Z,4.72
2023-04-02T10:13:23.619Z,4.66
2023-04-02T10:14:23.546Z,4.59
2023-04-02T10:15:23.552Z,4.52
2023-04-02T10:16:24.994Z,4.51
2023-04-02T10:17:23.551Z,4.55
2023-04-02T10:18:23.512Z,4.62
2023-04-02T10:19:23.472Z,4.66
2023-04-02T10:20:23.496Z,4.72
2023-04-02T10:21:23.454Z,4.75
2023-04-02T10:22:23.446Z,4.78
2023-04-02T10:23:23.461Z,4.70
2023-04-02T10:24:23.427Z,4.67
2023-04-02T10:25:23.398Z,4.73
2023-04-02T10:26:23.433Z,4.84
2023-04-02T10:27:23.390Z,4.89
2023-04-02T10:28:23.374Z,4.88
2023-04-02T10:29:23.378Z,4.86
2023-04-02T10:30:23.362Z,4.86
2023-04-02T10:31:23.432Z,4.85
2023-04-02T10:32:23.336Z,4.85
2023-04-02T10:33:23.354Z,4.80
2023-04-02T10:34:23.303Z,4.82
2023-04-02T10:35:23.352Z,4.84
2023-04-02T10:36:23.313Z,4.88
2023-04-02T10:37:23.269Z,4.89
2023-04-02T10:38:23.259Z,4.91
2023-04-02T10:39:23.328Z,4.96
2023-04-02T10:40:23.255Z,4.97
2023-04-02T10:41:23.262Z,4.97
2023-04-02T10:42:23.191Z,4.86
2023-04-02T10:43:23.405Z,4.69
2023-04-02T10:44:23.214Z,4.70
2023-04-02T10:45:23.154Z,4.73
2023-04-02T10:46:25.392Z,4.70
2023-04-02T10:47:23.186Z,4.69
2023-04-02T10:48:23.148Z,4.67
2023-04-02T10:49:23.120Z,4.55
2023-04-02T10:50:23.106Z,4.54
2023-04-02T10:51:23.118Z,4.62
2023-04-02T10:52:23.098Z,4.66
2023-04-02T10:53:23.260Z,4.66
2023-04-02T10:54:23.071Z,4.69
2023-04-02T10:55:23.059Z,4.72
2023-04-02T10:56:23.076Z,4.78
2023-04-02T10:57:23.086Z,4.77
2023-04-02T10:58:23.066Z,4.82
2023-04-02T10:59:23.011Z,4.85
2023-04-02T11:00:22.992Z,4.91
2023-04-02T11:01:23.007Z,4.86
2023-04-02T11:02:23.066Z,4.86
2023-04-02T11:03:23.085Z,4.80
2023-04-02T11:04:22.947Z,4.85
2023-04-02T11:05:22.918Z,4.82
2023-04-02T11:06:22.935Z,4.77
2023-04-02T11:07:22.939Z,4.82
2023-04-02T11:08:22.932Z,4.82
2023-04-02T11:09:22.891Z,4.80
2023-04-02T11:10:22.874Z,4.89
2023-04-02T11:11:22.869Z,4.89
2023-04-02T11:12:22.911Z,4.80
2023-04-02T11:13:22.955Z,4.78
2023-04-02T11:14:22.831Z,4.84
2023-04-02T11:15:22.839Z,4.94
2023-04-02T11:16:22.852Z,4.94
2023-04-02T11:17:22.827Z,4.80
2023-04-02T11:18:22.797Z,4.63
2023-04-02T11:19:22.795Z,4.55
2023-04-02T11:20:22.756Z,4.60
2023-04-02T11:21:22.781Z,4.66
2023-04-02T11:22:22.720Z,4.73
2023-04-02T11:23:22.817Z,4.85
2023-04-02T11:24:22.709Z,4.91
2023-04-02T11:25:22.726Z,4.91
2023-04-02T11:26:22.724Z,4.84
2023-04-02T11:27:22.741Z,4.85
2023-04-02T11:28:23.961Z,4.86
2023-04-02T11:29:22.647Z,4.84
2023-04-02T11:30:22.629Z,4.91
2023-04-02T11:31:22.682Z,4.94
2023-04-02T11:32:22.733Z,5.07
2023-04-02T11:33:34.082Z,5.15
2023-04-02T11:34:23.602Z,5.22
2023-04-02T11:35:22.575Z,5.17
2023-04-02T11:36:22.599Z,5.07
2023-04-02T11:37:22.528Z,4.97
2023-04-02T11:38:22.602Z,4.96
2023-04-02T11:39:22.532Z,4.89
2023-04-02T11:40:22.537Z,4.84
2023-04-02T11:41:22.498Z,4.88
2023-04-02T11:42:22.515Z,4.92
2023-04-02T11:43:22.460Z,4.99
2023-04-02T11:44:22.479Z,5.03
2023-04-02T11:45:22.476Z,4.99
2023-04-02T11:46:22.499Z,4.89
2023-04-02T11:47:22.476Z,4.82
2023-04-02T11:48:22.403Z,4.77
2023-04-02T11:49:22.423Z,4.70
2023-04-02T11:50:22.408Z,4.70
2023-04-02T11:51:22.446Z,4.77
2023-04-02T11:52:22.384Z,4.82
2023-04-02T11:53:22.343Z,4.85
2023-04-02T11:54:22.351Z,4.88
2023-04-02T11:55:22.339Z,4.91
2023-04-02T11:56:22.332Z,4.80
2023-04-02T11:57:22.344Z,4.82
2023-04-02T11:58:22.295Z,4.92
2023-04-02T11:59:22.260Z,5.00
2023-04-02T12:00:22.271Z,4.99
2023-04-02T12:01:22.247Z,5.04
2023-04-02T12:02:22.304Z,5.04
2023-04-02T12:03:22.281Z,5.04
2023-04-02T12:04:22.207Z,5.09
2023-04-02T12:05:22.222Z,5.07
2023-04-02T12:06:22.224Z,5.15
2023-04-02T12:07:22.199Z,5.20
2023-04-02T12:08:22.161Z,5.24
2023-04-02T12:09:22.208Z,5.30
2023-04-02T12:10:22.167Z,5.31
2023-04-02T12:11:22.127Z,5.33
2023-04-02T12:12:22.142Z,5.30
2023-04-02T12:13:22.104Z,5.31
2023-04-02T12:14:22.124Z,5.39
2023-04-02T12:15:22.079Z,5.28
2023-04-02T12:16:22.088Z,5.27
2023-04-02T12:17:22.226Z,5.31
2023-04-02T12:18:22.089Z,5.38
2023-04-02T12:19:22.068Z,5.46
2023-04-02T12:20:22.044Z,5.56
2023-04-02T12:21:21.997Z,5.64
2023-04-02T12:22:22.000Z,5.72
2023-04-02T12:23:22.041Z,5.74
2023-04-02T12:24:21.975Z,5.72
2023-04-02T12:25:22.003Z,5.68
2023-04-02T12:26:23.057Z,5.67
2023-04-02T12:27:21.934Z,5.60
2023-04-02T12:28:21.923Z,5.57
2023-04-02T12:29:21.954Z,5.56
2023-04-02T12:30:21.919Z,5.48
2023-04-02T12:31:21.951Z,5.49
2023-04-02T12:32:21.936Z,5.53
2023-04-02T12:33:21.880Z,5.56
2023-04-02T12:34:21.896Z,5.53
2023-04-02T12:35:21.876Z,5.57
2023-04-02T12:36:21.907Z,5.46
2023-04-02T12:37:21.813Z,5.39
2023-04-02T12:38:21.837Z,5.31
2023-04-02T12:39:21.822Z,5.22
2023-04-02T12:40:21.797Z,5.22
2023-04-02T12:41:21.776Z,5.22
2023-04-02T12:42:21.755Z,5.27
2023-04-02T12:43:21.745Z,5.35
2023-04-02T12:44:21.776Z,5.21
2023-04-02T12:45:21.739Z,5.15
2023-04-02T12:46:21.734Z,5.13
2023-04-02T12:47:21.689Z,5.20
2023-04-02T12:48:21.709Z,5.28
2023-04-02T12:49:21.667Z,5.38
2023-04-02T12:50:21.680Z,5.31
2023-04-02T12:51:21.692Z,5.27
2023-04-02T12:52:21.657Z,5.33
2023-04-02T12:53:21.649Z,5.36
2023-04-02T12:54:21.644Z,5.42
2023-04-02T12:55:21.609Z,5.43
2023-04-02T12:56:21.613Z,5.49
2023-04-02T12:57:21.642Z,5.56
2023-04-02T12:58:21.599Z,5.65
2023-04-02T12:59:21.582Z,5.76
2023-04-02T13:00:21.562Z,5.86
2023-04-02T13:01:21.609Z,5.99
2023-04-02T13:02:21.585Z,6.04
2023-04-02T13:03:21.707Z,6.00
2023-04-02T13:04:21.560Z,6.00
2023-04-02T13:05:21.511Z,6.06
2023-04-02T13:06:21.482Z,6.15
2023-04-02T13:07:21.512Z,6.15
2023-04-02T13:08:21.509Z,6.04
2023-04-02T13:09:21.446Z,5.97
2023-04-02T13:10:21.450Z,5.93
2023-04-02T13:11:21.409Z,5.94
2023-04-02T13:12:21.435Z,5.90
2023-04-02T13:13:21.446Z,5.82
2023-04-02T13:14:21.396Z,5.78
2023-04-02T13:15:21.452Z,5.79
2023-04-02T13:16:21.435Z,5.81
2023-04-02T13:17:21.359Z,5.83
2023-04-02T13:18:21.360Z,5.91
2023-04-02T13:19:21.346Z,5.96
2023-04-02T13:20:21.343Z,5.91